Budapest Bridge — VRIZ5 — position and weather

sailwx.info

Track history (hours):
 
Tides and Currents Weather Stations Pressure Air Temp Water Temp Dewpoint Dewpoint Depression Visibility Wind Speed Wind Dir Waves Ship Positions

Budapest Bridge

Last reported at 2014-Nov-21 13:32 UTC. Time now 2014-Nov-23 04:42 UTC.
Position N 29°08' E 122°39'.

Length 268 m; draft 9.6 m.

Type: Cargo ship. MMSI: 477434200.

Date/timePositionNaut miles runAvg speedWind from/ knotsBaromVisibWave heightAir tempDewpointWater temp
2014-Nov-21 13:32N 29°08' E 122°39'2611.5
2014-Nov-21 11:18N 29°34' E 122°34'810.5
2014-Nov-21 10:33N 29°40' E 122°28'1111.1
2014-Nov-21 09:33N 29°46' E 122°18'1212.0
2014-Nov-21 08:33N 29°55' E 122°09'6 6.2
2014-Nov-21 07:33N 29°54' E 122°02'0 0.0
2014-Nov-21 06:33N 29°54' E 122°02'0 0.0
2014-Nov-21 05:33N 29°54' E 122°02'0 0.0
2014-Nov-21 04:33N 29°54' E 122°02'0 0.0
2014-Nov-21 03:33N 29°54' E 122°02'0 0.0
2014-Nov-21 02:33N 29°54' E 122°02'0 0.0
2014-Nov-21 01:33N 29°54' E 122°02'0 0.0
2014-Nov-21 00:33N 29°54' E 122°02'0 0.0
2014-Nov-20 23:33N 29°54' E 122°02'0 0.0
2014-Nov-20 22:33N 29°54' E 122°02'0 0.0
2014-Nov-20 21:33N 29°54' E 122°02'0 0.1
2014-Nov-20 20:33N 29°54' E 122°02'6 5.6
2014-Nov-20 19:33N 29°55' E 122°08'1211.6
2014-Nov-20 18:33N 29°47' E 122°17'8 8.3
2014-Nov-20 17:33N 29°43' E 122°26'1110.3
2014-Nov-20 16:31N 29°40' E 122°37'1211.9
2014-Nov-20 15:30N 29°48' E 122°49'46 7.6
2014-Nov-20 09:32N 30°31' E 122°31'1212.5
2014-Nov-20 08:33N 30°33' E 122°17'12 9.2
2014-Nov-20 07:16N 30°37' E 122°04'0 0.0
2014-Nov-20 06:25N 30°37' E 122°04'0 0.0
2014-Nov-20 05:25N 30°37' E 122°04'0 0.0
2014-Nov-20 04:31N 30°37' E 122°04'0 0.0
2014-Nov-20 03:28N 30°37' E 122°04'0 0.0
2014-Nov-20 02:22N 30°37' E 122°04'0 0.0
2014-Nov-20 01:31N 30°37' E 122°04'0 0.0
2014-Nov-20 00:19N 30°37' E 122°04'0 0.0
2014-Nov-19 23:31N 30°37' E 122°04'0 0.0
2014-Nov-19 22:28N 30°37' E 122°04'0 0.0
2014-Nov-19 21:22N 30°37' E 122°04'0 0.0
2014-Nov-19 20:31N 30°37' E 122°04'0 0.0
2014-Nov-19 19:31N 30°37' E 122°04'0 0.0
2014-Nov-19 18:31N 30°37' E 122°04'0 0.0
2014-Nov-19 17:31N 30°37' E 122°04'0 0.0
2014-Nov-19 16:31N 30°37' E 122°04'0 0.0
2014-Nov-19 15:31N 30°37' E 122°04'4 3.9
2014-Nov-19 14:34N 30°35' E 122°07'1211.6
2014-Nov-19 13:33N 30°33' E 122°21'4 4.4
2014-Nov-19 12:33N 30°33' E 122°26'5 1.3
2014-Nov-19 08:32N 30°31' E 122°32'1412.5
2014-Nov-19 07:24N 30°25' E 122°47'4 0.5
2014-Nov-19 00:00N 30°24' E 122°42'4 0.2 100 / 71025.010.8 16.0 8.1
2014-Nov-18 01:24N 30°25' E 122°46'192 7.6
2014-Nov-17 00:00N 27°18' E 121°54'218 9.7 360 / 371020.0 5.4 19.015.7
2014-Nov-16 01:33N 24°32' E 119°16'1010.4
2014-Nov-16 00:33N 24°26' E 119°07'1310.6
2014-Nov-15 23:20N 24°19' E 118°55'2110.7
2014-Nov-15 21:22N 24°06' E 118°38'1211.3
2014-Nov-15 20:19N 23°59' E 118°27'911.4
2014-Nov-15 19:33N 23°54' E 118°19'1211.5
2014-Nov-15 18:32N 23°47' E 118°09'917.3
2014-Nov-15 18:00N 23°42' E 118°00'3 6.1 040 / 211018.010.8 21.016.1
2014-Nov-15 17:32N 23°39' E 117°59'1611.4
2014-Nov-15 16:05N 23°28' E 117°46'213 9.9
2014-Nov-14 18:33N 22°20' E 114°07'2 0.1
2014-Nov-14 02:33N 22°19' E 114°06'1110.2
2014-Nov-14 01:29N 22°10' E 114°13'39515.5
2014-Nov-13 00:00N 15°42' E 112°54'8313.9 050 / 171012.010.8 28.022.1
2014-Nov-12 18:00N 14°24' E 112°24'   040 / 161012.010.8 28.025.2
Track history (hours):
 
Tides and Currents Weather Stations Pressure Air Temp Water Temp Dewpoint Dewpoint Depression Visibility Wind Speed Wind Dir Waves Ship Positions

Budapest Bridge

Last reported at 2014-Nov-21 13:32 UTC. Time now 2014-Nov-23 04:42 UTC.
Position N 29°08' E 122°39'.

Length 268 m; draft 9.6 m.

Type: Cargo ship. MMSI: 477434200.

Date/timePositionNaut miles runAvg speedWind from/ knotsBaromVisibWave heightAir tempDewpointWater temp
2014-Nov-21 13:32N 29°08' E 122°39'2611.5
2014-Nov-21 11:18N 29°34' E 122°34'810.5
2014-Nov-21 10:33N 29°40' E 122°28'1111.1
2014-Nov-21 09:33N 29°46' E 122°18'1212.0
2014-Nov-21 08:33N 29°55' E 122°09'6 6.2
2014-Nov-21 07:33N 29°54' E 122°02'0 0.0
2014-Nov-21 06:33N 29°54' E 122°02'0 0.0
2014-Nov-21 05:33N 29°54' E 122°02'0 0.0
2014-Nov-21 04:33N 29°54' E 122°02'0 0.0
2014-Nov-21 03:33N 29°54' E 122°02'0 0.0
2014-Nov-21 02:33N 29°54' E 122°02'0 0.0
2014-Nov-21 01:33N 29°54' E 122°02'0 0.0
2014-Nov-21 00:33N 29°54' E 122°02'0 0.0
2014-Nov-20 23:33N 29°54' E 122°02'0 0.0
2014-Nov-20 22:33N 29°54' E 122°02'0 0.0
2014-Nov-20 21:33N 29°54' E 122°02'0 0.1
2014-Nov-20 20:33N 29°54' E 122°02'6 5.6
2014-Nov-20 19:33N 29°55' E 122°08'1211.6
2014-Nov-20 18:33N 29°47' E 122°17'8 8.3
2014-Nov-20 17:33N 29°43' E 122°26'1110.3
2014-Nov-20 16:31N 29°40' E 122°37'1211.9
2014-Nov-20 15:30N 29°48' E 122°49'46 7.6
2014-Nov-20 09:32N 30°31' E 122°31'1212.5
2014-Nov-20 08:33N 30°33' E 122°17'12 9.2
2014-Nov-20 07:16N 30°37' E 122°04'0 0.0
2014-Nov-20 06:25N 30°37' E 122°04'0 0.0
2014-Nov-20 05:25N 30°37' E 122°04'0 0.0
2014-Nov-20 04:31N 30°37' E 122°04'0 0.0
2014-Nov-20 03:28N 30°37' E 122°04'0 0.0
2014-Nov-20 02:22N 30°37' E 122°04'0 0.0
2014-Nov-20 01:31N 30°37' E 122°04'0 0.0
2014-Nov-20 00:19N 30°37' E 122°04'0 0.0
2014-Nov-19 23:31N 30°37' E 122°04'0 0.0
2014-Nov-19 22:28N 30°37' E 122°04'0 0.0
2014-Nov-19 21:22N 30°37' E 122°04'0 0.0
2014-Nov-19 20:31N 30°37' E 122°04'0 0.0
2014-Nov-19 19:31N 30°37' E 122°04'0 0.0
2014-Nov-19 18:31N 30°37' E 122°04'0 0.0
2014-Nov-19 17:31N 30°37' E 122°04'0 0.0
2014-Nov-19 16:31N 30°37' E 122°04'0 0.0
2014-Nov-19 15:31N 30°37' E 122°04'4 3.9
2014-Nov-19 14:34N 30°35' E 122°07'1211.6
2014-Nov-19 13:33N 30°33' E 122°21'4 4.4
2014-Nov-19 12:33N 30°33' E 122°26'5 1.3
2014-Nov-19 08:32N 30°31' E 122°32'1412.5
2014-Nov-19 07:24N 30°25' E 122°47'4 0.5
2014-Nov-19 00:00N 30°24' E 122°42'4 0.2 100 / 71025.010.8 16.0 8.1
2014-Nov-18 01:24N 30°25' E 122°46'192 7.6
2014-Nov-17 00:00N 27°18' E 121°54'218 9.7 360 / 371020.0 5.4 19.015.7
2014-Nov-16 01:33N 24°32' E 119°16'1010.4
2014-Nov-16 00:33N 24°26' E 119°07'1310.6
2014-Nov-15 23:20N 24°19' E 118°55'2110.7
2014-Nov-15 21:22N 24°06' E 118°38'1211.3
2014-Nov-15 20:19N 23°59' E 118°27'911.4
2014-Nov-15 19:33N 23°54' E 118°19'1211.5
2014-Nov-15 18:32N 23°47' E 118°09'917.3
2014-Nov-15 18:00N 23°42' E 118°00'3 6.1 040 / 211018.010.8 21.016.1
2014-Nov-15 17:32N 23°39' E 117°59'1611.4
2014-Nov-15 16:05N 23°28' E 117°46'213 9.9
2014-Nov-14 18:33N 22°20' E 114°07'2 0.1
2014-Nov-14 02:33N 22°19' E 114°06'1110.2
2014-Nov-14 01:29N 22°10' E 114°13'39515.5
2014-Nov-13 00:00N 15°42' E 112°54'8313.9 050 / 171012.010.8 28.022.1
2014-Nov-12 18:00N 14°24' E 112°24'   040 / 161012.010.8 28.025.2

Dump ship's entire track history